Time;durP1;ratioP1;P1;durP2;ratioP2;P2;SDS_P1;SDS_P2;PMS_P1;PMS_P2;Temp;Humidity;BMP_temperature;BMP_pressure;BME280_temperature;BME280_humidity;BME280_pressure;Samples;Min_cycle;Max_cycle;Signal;HPM_P1;HPM_P2
2022/03/20 00:02:03;;;;;;;21.50;13.90;;;;;;;12.46;48.22;99604.16;4919224;29;20020;-50
2022/03/20 00:04:29;;;;;;;19.35;13.40;;;;;;;12.56;48.12;99608.09;4919140;29;20020;-50
2022/03/20 00:06:55;;;;;;;19.48;13.27;;;;;;;12.64;47.56;99612.41;4919156;29;20395;-50
2022/03/20 00:09:21;;;;;;;20.88;13.20;;;;;;;12.54;48.23;99596.13;4919078;29;20529;-50
2022/03/20 00:11:47;;;;;;;23.98;14.65;;;;;;;12.49;48.00;99606.41;4919084;29;20031;-50
2022/03/20 00:14:13;;;;;;;19.60;13.40;;;;;;;12.34;47.63;99606.50;4917697;29;20566;-51
2022/03/20 00:16:39;;;;;;;22.17;17.25;;;;;;;12.34;48.36;99601.22;4933426;29;20131;-49
2022/03/20 00:19:05;;;;;;;21.88;15.15;;;;;;;12.39;47.49;99609.34;4917396;29;20511;-50
2022/03/20 00:21:31;;;;;;;24.73;13.05;;;;;;;12.48;48.26;99607.44;4918851;29;20486;-50
2022/03/20 00:23:57;;;;;;;19.85;13.52;;;;;;;12.42;47.64;99600.28;4917491;29;20028;-50
2022/03/20 00:26:23;;;;;;;17.52;11.45;;;;;;;12.37;47.23;99604.31;4917486;29;20020;-50
2022/03/20 00:28:49;;;;;;;19.08;11.55;;;;;;;12.37;47.00;99606.94;4918774;29;20020;-50
2022/03/20 00:31:15;;;;;;;23.10;12.63;;;;;;;12.28;47.25;99594.09;4917408;29;20024;-50
2022/03/20 00:33:40;;;;;;;21.00;12.07;;;;;;;12.18;46.95;99595.22;4918691;29;20048;-50
2022/03/20 00:36:06;;;;;;;14.85;11.23;;;;;;;12.16;47.26;99594.59;4918594;29;20107;-50
2022/03/20 00:38:32;;;;;;;25.10;12.52;;;;;;;12.17;47.51;99584.88;4918564;29;20032;-50
2022/03/20 00:40:58;;;;;;;17.27;10.50;;;;;;;12.19;46.67;99582.84;4917285;29;20028;-50
2022/03/20 00:43:24;;;;;;;22.05;12.48;;;;;;;12.11;46.79;99601.41;4918448;29;20075;-50
2022/03/20 00:45:49;;;;;;;19.35;11.32;;;;;;;11.97;47.10;99597.81;4918495;29;20016;-50
2022/03/20 00:48:15;;;;;;;20.60;11.27;;;;;;;11.92;47.90;99585.25;4917156;29;20458;-50
2022/03/20 00:50:41;;;;;;;19.05;10.27;;;;;;;12.02;46.69;99598.09;4917086;29;20466;-50
2022/03/20 00:53:07;;;;;;;16.98;11.18;;;;;;;12.03;46.67;99597.06;4917050;29;20413;-50
2022/03/20 00:55:32;;;;;;;15.32;9.63;;;;;;;12.21;45.77;99598.47;4918244;29;20020;-50
2022/03/20 00:57:58;;;;;;;18.50;9.70;;;;;;;12.16;45.48;99568.28;4918293;29;20031;-52
2022/03/20 01:00:25;;;;;;;16.77;10.60;;;;;;;12.07;45.83;99553.59;4918175;29;20107;-50
2022/03/20 01:02:50;;;;;;;17.73;10.07;;;;;;;12.11;45.45;99570.66;4916878;29;20072;-49
2022/03/20 01:05:16;;;;;;;15.95;10.35;;;;;;;12.17;44.71;99585.69;4916689;29;20024;-49
2022/03/20 01:07:45;;;;;;;13.45;8.57;;;;;;;12.16;44.51;99576.16;4916803;29;20076;-50
2022/03/20 01:10:12;;;;;;;17.58;10.05;;;;;;;12.13;44.60;99546.78;4916023;29;20051;-50
2022/03/20 01:12:39;;;;;;;19.55;9.02;;;;;;;12.10;44.07;99579.53;4917982;29;20034;-50
2022/03/20 01:15:07;;;;;;;14.00;8.40;;;;;;;12.08;44.67;99571.03;4917958;29;20027;-50
2022/03/20 01:17:34;;;;;;;16.88;10.50;;;;;;;12.04;45.20;99563.72;4917924;29;20498;-48
2022/03/20 01:19:59;;;;;;;22.25;9.93;;;;;;;12.03;44.51;99573.38;4917662;29;20048;-50
2022/03/20 01:22:25;;;;;;;14.45;8.30;;;;;;;12.08;44.29;99562.31;4917833;29;20028;-50
2022/03/20 01:24:51;;;;;;;22.55;10.15;;;;;;;12.15;44.94;99585.06;4917714;29;20129;-50
2022/03/20 01:27:16;;;;;;;17.92;10.05;;;;;;;12.16;43.77;99575.34;4917693;29;20039;-50
2022/03/20 01:29:42;;;;;;;16.48;8.98;;;;;;;12.12;43.82;99582.81;4916416;29;20119;-50
2022/03/20 01:32:10;;;;;;;23.95;10.05;;;;;;;12.11;44.07;99569.81;4917638;29;20032;-51
2022/03/20 01:34:36;;;;;;;17.55;10.07;;;;;;;12.17;43.59;99564.66;4917604;29;20040;-50
2022/03/20 01:37:02;;;;;;;16.15;10.60;;;;;;;12.15;43.78;99578.97;4916286;29;20063;-50
2022/03/20 01:39:29;;;;;;;18.42;9.88;;;;;;;12.16;43.94;99572.72;4917530;29;20032;-50
2022/03/20 01:41:55;;;;;;;16.80;9.90;;;;;;;12.23;43.75;99560.41;4917430;29;20056;-49
2022/03/20 01:44:29;;;;;;;17.40;10.02;;;;;;;12.42;43.22;99506.31;4917327;29;20027;-50
2022/03/20 01:46:55;;;;;;;20.50;10.13;;;;;;;12.47;44.43;99575.00;4917421;29;20168;-50
2022/03/20 01:49:21;;;;;;;13.10;8.80;;;;;;;12.53;43.12;99563.69;4917320;29;20564;-49
2022/03/20 01:54:31;;;;;;;26.23;10.88;;;;;;;12.66;42.92;99559.56;4917292;29;20047;-50
2022/03/20 01:56:57;;;;;;;17.52;8.88;;;;;;;12.71;42.50;99552.69;4917177;29;20077;-51
2022/03/20 01:59:23;;;;;;;17.08;10.32;;;;;;;12.64;42.77;99559.75;4917133;29;20032;-49
2022/03/20 02:01:48;;;;;;;12.00;8.30;;;;;;;12.56;42.31;99552.78;4915783;29;20111;-50
2022/03/20 02:04:15;;;;;;;25.35;10.18;;;;;;;12.52;43.18;99561.28;4917008;29;20810;-49
2022/03/20 02:06:42;;;;;;;14.57;8.75;;;;;;;12.58;42.82;99561.31;4915705;29;20063;-50
2022/03/20 02:09:11;;;;;;;19.23;10.30;;;;;;;12.47;43.51;99548.66;4916947;29;20043;-49
2022/03/20 02:11:37;;;;;;;17.92;10.27;;;;;;;12.37;43.51;99575.34;4916928;29;20402;-50
2022/03/20 02:14:05;;;;;;;16.48;9.82;;;;;;;12.33;43.42;99550.38;4916872;29;20533;-50
2022/03/20 02:16:31;;;;;;;17.10;10.20;;;;;;;12.35;43.93;99555.47;4915565;29;20452;-50
2022/03/20 02:18:58;;;;;;;21.75;9.70;;;;;;;12.30;44.25;99528.91;4915269;29;20054;-50
2022/03/20 02:21:39;;;;;;;17.67;8.88;;;;;;;12.21;43.71;99575.59;4914781;29;20036;-50
2022/03/20 02:24:25;;;;;;;17.88;10.52;;;;;;;12.13;44.08;99558.13;4916618;29;20115;-50
2022/03/20 02:26:51;;;;;;;18.42;9.10;;;;;;;12.10;44.27;99557.69;4902059;29;20079;-50
2022/03/20 02:29:16;;;;;;;17.52;9.43;;;;;;;12.05;44.28;99558.22;4916620;29;20060;-50
2022/03/20 02:31:43;;;;;;;13.57;9.60;;;;;;;12.12;44.49;99558.31;4916601;29;20028;-50
2022/03/20 02:34:08;;;;;;;15.40;9.25;;;;;;;12.13;44.65;99563.41;4915185;29;20091;-50
2022/03/20 02:36:36;;;;;;;19.15;8.10;;;;;;;12.22;44.11;99565.91;4915526;29;20032;-50
2022/03/20 02:39:03;;;;;;;15.07;8.88;;;;;;;12.19;44.28;99565.28;4916408;29;20095;-50
2022/03/20 02:41:30;;;;;;;17.88;8.85;;;;;;;12.16;44.14;99573.53;4916402;29;20545;-50
2022/03/20 02:43:57;;;;;;;15.73;9.35;;;;;;;12.12;44.74;99572.28;4916259;29;20562;-49
2022/03/20 02:46:23;;;;;;;15.07;9.00;;;;;;;12.12;44.22;99577.53;4914984;29;20164;-50
2022/03/20 02:48:49;;;;;;;17.60;8.30;;;;;;;12.09;44.16;99591.09;4916337;29;20107;-49
2022/03/20 02:51:17;;;;;;;14.45;8.00;;;;;;;12.02;44.14;99578.88;4916196;29;20039;-50
2022/03/20 02:53:42;;;;;;;15.48;9.23;;;;;;;11.95;44.53;99584.03;4916190;29;20391;-49
2022/03/20 02:56:10;;;;;;;16.77;9.15;;;;;;;11.92;44.46;99592.31;4914839;29;20035;-50
2022/03/20 02:58:36;;;;;;;16.13;8.95;;;;;;;11.87;44.55;99592.84;4916148;29;20028;-50
2022/03/20 03:01:02;;;;;;;17.33;9.02;;;;;;;11.75;44.88;99589.06;4914699;29;20158;-50
2022/03/20 03:03:28;;;;;;;18.70;9.43;;;;;;;11.77;45.27;99582.63;4916038;29;20028;-50
2022/03/20 03:05:58;;;;;;;19.08;9.40;;;;;;;11.78;44.79;99586.88;4916048;29;20099;-49
2022/03/20 03:11:09;;;;;;;19.15;9.18;;;;;;;11.77;45.08;99592.31;4915941;29;20051;-50
2022/03/20 03:13:39;;;;;;;18.33;9.90;;;;;;;11.80;45.09;99598.03;4914609;29;20036;-50
2022/03/20 03:16:14;;;;;;;14.13;8.02;;;;;;;11.76;45.00;99602.03;4915808;29;20027;-50
2022/03/20 03:18:44;;;;;;;17.38;8.68;;;;;;;11.69;45.16;99606.41;4914342;29;20051;-51
2022/03/20 03:21:12;;;;;;;19.85;9.82;;;;;;;11.77;45.43;99598.41;4915844;29;20031;-49
2022/03/20 03:23:39;;;;;;;18.02;9.15;;;;;;;11.83;44.86;99603.91;4914452;29;20020;-50
2022/03/20 03:26:06;;;;;;;14.57;9.15;;;;;;;11.75;45.16;99600.41;4914445;29;20040;-50
2022/03/20 03:28:34;;;;;;;15.88;8.20;;;;;;;11.77;45.20;99606.31;4915730;29;20398;-50
2022/03/20 03:31:01;;;;;;;13.57;8.85;;;;;;;11.82;44.95;99610.19;4915628;29;20027;-50
2022/03/20 03:33:27;;;;;;;12.70;8.32;;;;;;;11.82;45.13;99604.94;4915367;29;20032;-50
2022/03/20 03:35:57;;;;;;;16.02;9.13;;;;;;;11.75;45.19;99604.84;4914290;29;20096;-50
2022/03/20 03:38:26;;;;;;;16.35;8.30;;;;;;;11.68;45.79;99607.41;4915640;29;20032;-50
2022/03/20 03:40:52;;;;;;;22.77;9.43;;;;;;;11.72;45.19;99603.41;4914380;29;20409;-50
2022/03/20 03:43:18;;;;;;;16.48;9.10;;;;;;;11.74;45.39;99608.47;4914193;29;20115;-50
2022/03/20 03:45:46;;;;;;;20.35;10.05;;;;;;;11.78;45.23;99605.28;4914230;29;20135;-50
2022/03/20 03:48:12;;;;;;;14.65;8.15;;;;;;;11.85;45.17;99610.63;4915546;29;20024;-49
2022/03/20 03:50:40;;;;;;;17.42;7.88;;;;;;;11.97;44.80;99624.13;4915475;29;20106;-50
2022/03/20 03:53:09;;;;;;;16.80;8.30;;;;;;;12.08;44.85;99612.31;4914179;29;20119;-50
2022/03/20 03:55:35;;;;;;;18.92;7.93;;;;;;;12.15;44.56;99621.91;4914242;29;20028;-49
2022/03/20 03:58:01;;;;;;;19.58;9.38;;;;;;;12.17;44.35;99619.06;4915467;29;20039;-50
2022/03/20 04:00:29;;;;;;;22.13;9.63;;;;;;;12.25;44.66;99615.50;4915502;29;20028;-50
2022/03/20 04:02:55;;;;;;;17.30;8.65;;;;;;;12.30;44.39;99627.09;4914143;29;20447;-50
2022/03/20 04:05:21;;;;;;;18.77;7.72;;;;;;;12.37;43.94;99627.16;4915310;29;20091;-49
2022/03/20 04:07:47;;;;;;;13.65;7.55;;;;;;;12.47;42.70;99624.22;4915410;29;20024;-50
2022/03/20 04:10:15;;;;;;;17.23;8.07;;;;;;;12.31;43.65;99626.09;4915359;29;20028;-50
2022/03/20 04:12:43;;;;;;;18.77;8.60;;;;;;;12.48;43.60;99639.03;4914056;29;20055;-50
2022/03/20 04:15:10;;;;;;;15.48;8.40;;;;;;;12.48;43.61;99633.75;4915285;29;20036;-49
2022/03/20 04:17:37;;;;;;;19.00;8.75;;;;;;;12.54;43.47;99633.00;4914021;29;20028;-50
2022/03/20 04:20:04;;;;;;;18.83;8.10;;;;;;;12.67;43.55;99632.28;4913768;29;20048;-50
2022/03/20 04:22:30;;;;;;;19.98;9.45;;;;;;;12.82;42.64;99632.19;4915314;29;20024;-50
2022/03/20 04:24:56;;;;;;;18.23;8.05;;;;;;;12.78;43.03;99629.13;4913839;29;20091;-50
2022/03/20 04:27:23;;;;;;;19.60;8.88;;;;;;;12.96;42.93;99634.75;4915211;29;20024;-50
2022/03/20 04:29:49;;;;;;;21.67;8.18;;;;;;;13.23;42.32;99623.53;4915244;29;20465;-50
2022/03/20 04:32:15;;;;;;;18.35;9.05;;;;;;;13.38;42.66;99633.00;4915446;29;20051;-49
2022/03/20 04:34:43;;;;;;;18.80;8.35;;;;;;;13.74;41.39;99634.56;4913808;29;20039;-50
2022/03/20 04:37:10;;;;;;;23.98;9.05;;;;;;;13.73;41.27;99632.13;4913816;29;20314;-50
2022/03/20 04:39:37;;;;;;;20.00;9.15;;;;;;;13.79;41.27;99628.69;4915145;29;20025;-50
2022/03/20 04:42:04;;;;;;;19.23;8.50;;;;;;;13.91;41.13;99639.50;4915012;29;20028;-49
2022/03/20 04:44:31;;;;;;;21.35;8.65;;;;;;;13.92;41.71;99639.31;4913710;29;20072;-50
2022/03/20 04:46:56;;;;;;;15.40;7.97;;;;;;;14.03;40.91;99640.56;4916925;29;20036;-49
2022/03/20 05:00:21;;;;;;;17.38;8.00;;;;;;;13.72;40.84;99643.69;4918329;29;20031;-50
2022/03/20 05:02:48;;;;;;;15.23;8.05;;;;;;;13.61;40.70;99639.78;4918155;29;20028;-50
2022/03/20 05:05:14;;;;;;;27.13;8.95;;;;;;;13.56;41.42;99648.31;4916799;29;20028;-50
2022/03/20 05:07:40;;;;;;;16.00;7.97;;;;;;;13.46;41.88;99652.28;4918124;29;20032;-50
2022/03/20 05:15:39;;;;;;;19.60;9.52;;;;;;;13.59;41.36;99657.63;4918299;29;20031;-50
2022/03/20 05:18:07;;;;;;;23.25;9.50;;;;;;;13.64;41.39;99655.22;4919456;29;20192;-50
2022/03/20 05:20:34;;;;;;;20.70;8.32;;;;;;;13.75;41.05;99661.78;4919793;29;20047;-50
2022/03/20 05:23:01;;;;;;;15.30;8.43;;;;;;;13.69;41.18;99655.44;4916516;29;20411;-50
2022/03/20 05:25:30;;;;;;;25.55;9.40;;;;;;;13.72;41.36;99668.25;4917735;29;20043;-50
2022/03/20 05:27:57;;;;;;;21.45;8.68;;;;;;;13.83;41.45;99656.31;4917763;29;20388;-50
2022/03/20 05:30:23;;;;;;;17.67;8.85;;;;;;;13.95;40.33;99665.28;4917693;29;20028;-50
2022/03/20 05:32:50;;;;;;;16.67;8.13;;;;;;;13.88;39.99;99659.16;4916405;29;20067;-50
2022/03/20 05:35:16;;;;;;;19.08;8.60;;;;;;;13.76;40.30;99674.78;4917615;29;20036;-50
2022/03/20 05:37:45;;;;;;;19.15;8.73;;;;;;;13.83;40.51;99669.50;4916328;29;20031;-50
2022/03/20 05:40:13;;;;;;;14.13;8.52;;;;;;;13.79;40.35;99673.56;4917504;29;20032;-50
2022/03/20 05:42:39;;;;;;;13.75;8.40;;;;;;;13.75;40.48;99670.50;4916221;29;20079;-50
2022/03/20 05:45:06;;;;;;;14.07;7.45;;;;;;;13.67;40.44;99681.22;4917375;29;20486;-50
2022/03/20 05:47:33;;;;;;;22.77;8.95;;;;;;;13.48;40.85;99679.28;4917391;29;20032;-49
2022/03/20 05:50:03;;;;;;;13.75;8.10;;;;;;;13.38;41.39;99688.38;4917337;29;20039;-50
2022/03/20 05:52:32;;;;;;;20.08;9.02;;;;;;;13.19;41.32;99695.09;4916080;29;20036;-50
2022/03/20 05:54:59;;;;;;;21.52;8.80;;;;;;;13.02;41.61;99696.41;4917268;29;20039;-50
2022/03/20 06:00:16;;;;;;;24.92;9.48;;;;;;;12.75;42.09;99695.34;4917217;29;20070;-49
2022/03/20 06:02:43;;;;;;;17.88;7.90;;;;;;;12.75;42.56;99690.91;4917184;29;20028;-50
2022/03/20 06:05:09;;;;;;;15.63;8.32;;;;;;;12.78;42.44;99698.44;4915742;29;20028;-49
2022/03/20 06:07:43;;;;;;;16.67;7.78;;;;;;;12.81;41.74;99706.97;4917043;29;20071;-49
2022/03/20 06:10:14;;;;;;;20.70;8.07;;;;;;;12.74;42.17;99707.72;4915739;29;20147;-49
2022/03/20 06:12:40;;;;;;;22.95;8.77;;;;;;;12.80;42.36;99703.53;4915644;29;20035;-50
2022/03/20 06:15:09;;;;;;;15.98;8.00;;;;;;;12.78;42.11;99714.25;4916902;29;20075;-50
2022/03/20 06:17:41;;;;;;;12.27;7.25;;;;;;;12.78;42.30;99705.53;4916891;29;20516;-49
2022/03/20 06:20:09;;;;;;;16.48;7.78;;;;;;;12.74;42.48;99714.81;4916602;29;20531;-49
2022/03/20 06:22:35;;;;;;;15.45;7.72;;;;;;;12.71;42.12;99715.97;4916791;29;20044;-49
2022/03/20 06:25:04;;;;;;;17.98;8.95;;;;;;;12.70;42.60;99721.47;4916597;29;20036;-51
2022/03/20 06:27:41;;;;;;;15.95;7.60;;;;;;;12.73;42.32;99718.44;4916696;29;20028;-49
2022/03/20 06:30:07;;;;;;;16.73;8.85;;;;;;;12.78;42.51;99726.59;4916667;29;20408;-49
2022/03/20 06:32:32;;;;;;;22.20;8.60;;;;;;;12.76;42.22;99733.88;4915360;29;20118;-50
2022/03/20 06:34:58;;;;;;;12.88;7.40;;;;;;;12.86;42.53;99736.16;4915256;29;20646;-50
2022/03/20 06:37:24;;;;;;;21.02;8.60;;;;;;;12.93;42.42;99732.59;4915203;29;20624;-50
2022/03/20 06:39:49;;;;;;;14.00;8.05;;;;;;;13.11;41.51;99736.59;4916479;29;20060;-49
2022/03/20 06:42:15;;;;;;;11.98;7.47;;;;;;;13.70;41.13;99724.84;4915093;29;20514;-50
2022/03/20 06:44:41;;;;;;;12.60;8.60;;;;;;;13.82;40.79;99738.31;4914996;29;20380;-50
2022/03/20 06:47:07;;;;;;;14.15;8.15;;;;;;;14.07;40.18;99731.53;4915044;29;20028;-50
2022/03/20 06:49:34;;;;;;;13.35;7.72;;;;;;;14.34;39.76;99744.81;4916331;29;20029;-50
2022/03/20 06:52:00;;;;;;;14.68;8.48;;;;;;;14.27;39.59;99738.72;4916207;29;20028;-50
2022/03/20 06:54:25;;;;;;;22.27;9.27;;;;;;;14.12;39.58;99750.22;4914939;29;20039;-50
2022/03/20 06:56:54;;;;;;;18.25;8.25;;;;;;;13.96;40.50;99746.09;4916143;29;20035;-50
2022/03/20 06:59:20;;;;;;;20.20;8.75;;;;;;;14.12;39.91;99749.41;4916163;29;20059;-50
2022/03/20 07:01:46;;;;;;;16.08;8.45;;;;;;;14.23;40.02;99748.84;4916066;29;20059;-50
2022/03/20 07:04:12;;;;;;;20.50;8.50;;;;;;;14.32;39.60;99754.75;4914721;29;20021;-50
2022/03/20 07:06:38;;;;;;;15.90;8.27;;;;;;;14.83;39.15;99759.59;4915960;29;20036;-50
2022/03/20 07:09:04;;;;;;;15.73;8.40;;;;;;;15.60;38.25;99749.38;4914154;29;20036;-50
2022/03/20 07:11:32;;;;;;;20.95;8.45;;;;;;;16.36;36.14;99748.75;4915983;29;20028;-50
2022/03/20 07:13:59;;;;;;;20.02;9.65;;;;;;;16.45;35.47;99751.94;4915940;29;20035;-50
2022/03/20 07:16:30;;;;;;;15.20;8.90;;;;;;;15.91;36.20;99759.31;4914537;29;20032;-50
2022/03/20 07:18:56;;;;;;;18.60;8.73;;;;;;;15.50;36.38;99749.00;4915660;29;20040;-50
2022/03/20 07:21:22;;;;;;;13.35;7.03;;;;;;;15.20;36.78;99759.22;4914556;29;20039;-50
2022/03/20 07:23:49;;;;;;;12.95;7.90;;;;;;;15.06;37.54;99763.66;4914429;29;20028;-49
2022/03/20 07:31:43;;;;;;;16.13;8.25;;;;;;;14.80;37.72;99767.09;4915745;29;20570;-50
2022/03/20 07:34:08;;;;;;;16.77;8.20;;;;;;;14.91;38.03;99774.41;4915688;29;20028;-50
2022/03/20 07:36:34;;;;;;;15.35;9.35;;;;;;;14.90;39.00;99773.63;4915614;29;20092;-50
2022/03/20 07:39:00;;;;;;;13.40;8.20;;;;;;;14.94;38.30;99774.84;4914371;29;20028;-50
2022/03/20 07:41:26;;;;;;;13.75;7.68;;;;;;;15.33;37.38;99762.66;4915579;29;20024;-50
2022/03/20 07:43:52;;;;;;;12.95;7.70;;;;;;;15.90;36.36;99770.13;4914181;29;20036;-51
2022/03/20 07:46:17;;;;;;;10.23;7.30;;;;;;;16.67;35.72;99775.47;4915541;29;20020;-50
2022/03/20 07:48:43;;;;;;;14.40;8.27;;;;;;;17.44;34.20;99767.38;4914234;29;20032;-50
2022/03/20 07:51:09;;;;;;;13.55;8.80;;;;;;;18.06;32.72;99793.94;4915582;29;20080;-50
2022/03/20 07:53:35;;;;;;;13.15;8.75;;;;;;;18.41;31.86;99774.69;4915503;29;20051;-51
2022/03/20 07:56:01;;;;;;;14.88;9.65;;;;;;;18.74;31.44;99779.56;4915472;29;20036;-50
2022/03/20 07:58:27;;;;;;;14.05;8.27;;;;;;;19.27;30.79;99778.75;4915515;29;20475;-50
2022/03/20 08:00:53;;;;;;;15.85;7.88;;;;;;;19.61;32.32;99772.88;4915308;29;20506;-50
2022/03/20 08:03:18;;;;;;;18.88;8.18;;;;;;;20.23;29.43;99780.31;4914071;29;20024;-51
2022/03/20 08:05:44;;;;;;;12.65;8.63;;;;;;;20.34;29.66;99779.44;4914100;29;20122;-50
2022/03/20 08:08:14;;;;;;;19.83;8.80;;;;;;;20.28;29.41;99775.06;4915384;29;20035;-50
2022/03/20 08:10:41;;;;;;;13.70;7.72;;;;;;;20.85;27.88;99774.28;4915382;29;20039;-51
2022/03/20 08:13:09;;;;;;;15.75;8.07;;;;;;;21.33;27.25;99775.59;4915360;29;20032;-50
2022/03/20 08:15:36;;;;;;;18.65;8.98;;;;;;;22.10;27.03;99764.06;4915325;29;20024;-50
2022/03/20 08:18:04;;;;;;;10.85;7.45;;;;;;;22.77;25.74;99772.81;4914031;29;20399;-51
2022/03/20 08:20:30;;;;;;;11.77;8.25;;;;;;;23.01;25.00;99780.50;4917788;29;20422;-51
2022/03/20 08:22:56;;;;;;;15.88;8.48;;;;;;;22.79;25.60;99765.31;4918907;29;20039;-51
2022/03/20 08:25:22;;;;;;;16.75;8.15;;;;;;;22.53;25.28;99770.44;4918797;29;20031;-51
2022/03/20 08:27:50;;;;;;;13.68;7.53;;;;;;;22.29;26.21;99766.44;4917560;29;20024;-51
2022/03/20 08:30:17;;;;;;;15.77;7.93;;;;;;;22.60;25.43;99778.28;4917498;29;20091;-50
2022/03/20 08:32:43;;;;;;;12.77;7.78;;;;;;;22.61;25.68;99771.06;4918707;29;20035;-51
2022/03/20 08:35:14;;;;;;;12.73;8.73;;;;;;;22.89;25.35;99783.34;4918728;29;20392;-51
2022/03/20 08:37:44;;;;;;;14.15;7.63;;;;;;;22.44;25.63;99766.63;4918754;29;20028;-50
2022/03/20 08:40:15;;;;;;;9.65;7.40;;;;;;;22.50;25.22;99768.28;4918620;29;20036;-51
2022/03/20 08:42:49;;;;;;;18.85;7.63;;;;;;;22.66;25.33;99771.91;4918651;29;20051;-51
2022/03/20 08:45:16;;;;;;;12.93;7.35;;;;;;;22.82;24.89;99777.38;4917181;29;20028;-51
2022/03/20 08:47:43;;;;;;;16.38;9.07;;;;;;;22.93;25.17;99785.25;4917251;29;20028;-50
2022/03/20 08:50:10;;;;;;;16.10;8.52;;;;;;;23.09;24.11;99772.84;4918548;29;20028;-51
2022/03/20 08:52:36;;;;;;;16.90;7.90;;;;;;;22.60;24.83;99791.66;4918471;29;20024;-51
2022/03/20 08:55:09;;;;;;;16.67;8.32;;;;;;;22.30;24.71;99781.44;4918431;29;20111;-51
2022/03/20 08:57:37;;;;;;;9.77;7.05;;;;;;;22.34;25.25;99779.88;4918363;29;20447;-50
2022/03/20 09:00:03;;;;;;;12.48;8.30;;;;;;;22.83;24.56;99785.16;4916945;29;20028;-50
2022/03/20 09:02:29;;;;;;;11.13;6.68;;;;;;;23.41;24.24;99796.09;4918263;29;20024;-51
2022/03/20 09:04:55;;;;;;;12.32;8.43;;;;;;;23.45;24.24;99796.41;4916838;29;20118;-50
2022/03/20 09:07:20;;;;;;;12.77;7.82;;;;;;;23.28;23.67;99800.03;4918144;29;20024;-51
2022/03/20 09:09:46;;;;;;;12.30;6.80;;;;;;;23.30;23.98;99821.19;4918117;29;20495;-51
2022/03/20 09:12:12;;;;;;;17.90;9.20;;;;;;;22.67;23.97;99812.84;4916782;29;20116;-50
2022/03/20 09:14:37;;;;;;;17.45;7.68;;;;;;;22.24;24.55;99811.84;4916737;29;20040;-52
2022/03/20 09:19:48;;;;;;;13.52;7.43;;;;;;;21.63;25.06;99818.00;4917958;29;20111;-50
2022/03/20 09:22:16;;;;;;;11.90;6.85;;;;;;;21.50;25.18;99815.66;4917813;29;20036;-51
2022/03/20 09:24:42;;;;;;;14.13;8.00;;;;;;;21.38;25.47;99818.38;4917747;29;20032;-51
2022/03/20 09:27:07;;;;;;;14.30;7.93;;;;;;;21.45;25.15;99804.88;4916516;29;20035;-51
2022/03/20 09:29:33;;;;;;;20.60;8.13;;;;;;;21.56;24.97;99821.88;4917724;29;20491;-51
2022/03/20 09:31:59;;;;;;;14.95;8.25;;;;;;;21.21;25.95;99817.56;4917149;29;20153;-51
2022/03/20 09:34:25;;;;;;;15.32;7.72;;;;;;;21.37;25.33;99810.59;4916335;29;20066;-51
2022/03/20 09:36:50;;;;;;;12.82;8.00;;;;;;;21.47;25.52;99816.13;4916340;29;20107;-51
2022/03/20 09:39:16;;;;;;;17.88;8.73;;;;;;;21.38;26.73;99817.56;4917618;29;20016;-51
2022/03/20 09:41:47;;;;;;;11.80;8.10;;;;;;;21.49;25.50;99814.84;4917508;29;20036;-51
2022/03/20 09:44:15;;;;;;;15.52;8.45;;;;;;;21.69;25.34;99819.69;4917517;29;20043;-50
2022/03/20 09:46:42;;;;;;;15.70;8.50;;;;;;;21.78;25.34;99812.03;4917413;29;20032;-51
2022/03/20 09:49:07;;;;;;;15.43;8.05;;;;;;;22.11;24.88;99816.50;4917445;29;20024;-51
2022/03/20 09:51:34;;;;;;;12.30;8.15;;;;;;;22.59;24.31;99808.75;4916074;29;20578;-51
2022/03/20 09:54:00;;;;;;;16.88;9.10;;;;;;;22.65;23.91;99815.78;4917349;29;20406;-51
2022/03/20 09:56:27;;;;;;;15.48;8.20;;;;;;;22.55;23.99;99810.31;4917233;29;20388;-51
2022/03/20 09:58:52;;;;;;;15.75;8.05;;;;;;;22.89;24.41;99815.47;4917201;29;20032;-51
2022/03/20 10:01:18;;;;;;;14.38;8.60;;;;;;;23.21;23.30;99815.50;4915886;29;20028;-51
2022/03/20 10:03:46;;;;;;;12.15;8.07;;;;;;;22.61;23.71;99824.56;4915824;29;20020;-51
2022/03/20 10:06:16;;;;;;;16.88;8.15;;;;;;;21.89;23.81;99826.34;4917110;29;20036;-51
2022/03/20 10:08:58;;;;;;;11.00;7.70;;;;;;;21.39;24.07;99829.84;4917067;29;20035;-51
2022/03/20 10:11:25;;;;;;;16.25;8.90;;;;;;;20.99;24.91;99796.09;4917045;29;20028;-50
2022/03/20 10:14:15;;;;;;;17.45;8.23;;;;;;;20.71;25.79;99829.78;4916954;29;20028;-50
2022/03/20 10:16:50;;;;;;;12.52;7.70;;;;;;;21.09;25.09;99828.31;4916897;29;20095;-51
2022/03/20 10:19:27;;;;;;;15.68;8.20;;;;;;;21.58;24.89;99830.47;4916756;29;20557;-51
2022/03/20 10:21:57;;;;;;;13.45;8.35;;;;;;;21.98;24.22;99824.88;4931322;29;20040;-51
2022/03/20 10:24:25;;;;;;;15.82;8.77;;;;;;;22.65;23.61;99852.44;4915401;29;20098;-51
2022/03/20 10:27:00;;;;;;;15.27;9.25;;;;;;;22.93;23.50;99836.13;4915474;29;20039;-50
2022/03/20 10:29:26;;;;;;;17.15;8.82;;;;;;;22.92;24.26;99841.75;4916680;29;20403;-51
2022/03/20 10:31:55;;;;;;;14.75;8.25;;;;;;;23.55;22.82;99839.34;4915317;29;20131;-51
2022/03/20 10:34:23;;;;;;;15.70;8.13;;;;;;;23.67;22.19;99839.94;4916570;29;20121;-51
2022/03/20 10:36:50;;;;;;;17.75;8.57;;;;;;;23.48;22.70;99836.88;4916552;29;20025;-51
2022/03/20 10:39:21;;;;;;;11.30;7.63;;;;;;;23.60;22.65;99835.88;4916525;29;20550;-51
2022/03/20 10:41:48;;;;;;;11.27;7.82;;;;;;;24.05;22.02;99827.31;4916427;29;20044;-52
2022/03/20 10:44:19;;;;;;;15.13;8.13;;;;;;;24.20;21.53;99828.47;4915472;29;20136;-51
2022/03/20 10:47:13;;;;;;;12.98;8.02;;;;;;;23.73;22.33;99822.03;4915109;29;20122;-51
2022/03/20 10:49:48;;;;;;;11.80;7.50;;;;;;;23.65;22.31;99828.69;4916392;29;20132;-51
2022/03/20 10:52:22;;;;;;;12.75;7.75;;;;;;;24.25;22.30;99831.19;4916299;29;20103;-51
2022/03/20 10:54:53;;;;;;;10.95;8.05;;;;;;;24.02;21.87;99819.78;4916254;29;20376;-51
2022/03/20 10:57:20;;;;;;;13.43;7.95;;;;;;;23.30;22.95;99822.03;4916185;29;20440;-51
2022/03/20 10:59:58;;;;;;;10.23;7.57;;;;;;;22.82;23.08;99813.00;4914870;29;20032;-51
2022/03/20 11:02:25;;;;;;;16.02;8.75;;;;;;;22.72;23.82;99815.59;4916110;29;20034;-50
2022/03/20 11:04:52;;;;;;;15.68;8.52;;;;;;;23.13;23.11;99810.63;4916047;29;20032;-51
2022/03/20 11:07:18;;;;;;;14.20;8.45;;;;;;;23.26;23.44;99810.22;4915999;29;20111;-50
2022/03/20 11:09:52;;;;;;;16.30;7.95;;;;;;;23.43;22.89;99809.25;4916019;29;20103;-51
2022/03/20 11:12:27;;;;;;;12.68;8.40;;;;;;;23.01;23.82;99809.97;4916020;29;20028;-51
2022/03/20 11:15:06;;;;;;;12.32;8.30;;;;;;;22.95;23.53;99811.78;4916005;29;20058;-51
2022/03/20 11:17:44;;;;;;;10.30;7.60;;;;;;;22.79;23.87;99808.16;4915919;29;20025;-51
2022/03/20 11:20:18;;;;;;;11.88;7.63;;;;;;;23.01;23.96;99807.28;4914340;29;20091;-51
2022/03/20 11:22:52;;;;;;;11.23;8.13;;;;;;;23.61;22.92;99819.53;4915898;29;20100;-50
2022/03/20 11:25:21;;;;;;;13.73;8.63;;;;;;;23.61;22.83;99808.03;4915696;29;20490;-50
2022/03/20 11:27:55;;;;;;;18.92;8.07;;;;;;;23.66;22.77;99806.19;4915770;29;20091;-50
2022/03/20 11:30:31;;;;;;;13.27;8.70;;;;;;;23.73;22.52;99806.75;4915790;29;20035;-51
2022/03/20 11:33:00;;;;;;;12.43;8.70;;;;;;;23.43;23.05;99820.75;4915679;29;20087;-51
2022/03/20 11:35:30;;;;;;;13.70;7.50;;;;;;;23.27;23.54;99800.28;4915643;29;20039;-51
2022/03/20 11:38:11;;;;;;;11.82;8.45;;;;;;;23.09;23.27;99810.31;4914321;29;20043;-50
2022/03/20 11:40:41;;;;;;;13.68;7.60;;;;;;;22.30;24.15;99814.34;4915709;29;20115;-51
2022/03/20 11:43:16;;;;;;;16.95;8.25;;;;;;;21.41;25.23;99814.41;4915615;29;20034;-50
2022/03/20 11:46:01;;;;;;;14.27;8.55;;;;;;;20.91;26.22;99810.66;4915503;29;20040;-51
2022/03/20 11:48:27;;;;;;;15.40;8.77;;;;;;;20.55;27.44;99815.31;4915475;29;20029;-51
2022/03/20 11:50:53;;;;;;;14.05;8.95;;;;;;;20.52;27.60;99819.28;4914191;29;20028;-51
2022/03/20 11:53:28;;;;;;;17.08;10.00;;;;;;;20.34;27.08;99819.44;4915489;29;20036;-51
2022/03/20 11:55:54;;;;;;;17.55;9.38;;;;;;;19.94;27.96;99815.72;4919162;29;20028;-50
2022/03/20 11:58:26;;;;;;;14.95;9.13;;;;;;;19.89;27.97;99809.47;4919403;29;20031;-51
2022/03/20 12:01:03;;;;;;;15.52;8.00;;;;;;;19.62;28.12;99825.06;4918116;29;20127;-51